createdAt,value
2023-11-24T00:04:36.814Z,18.11
2023-11-24T00:09:38.844Z,18.15
2023-11-24T00:14:41.003Z,18.07
2023-11-24T00:19:43.191Z,18.11
2023-11-24T00:24:45.320Z,18.15
2023-11-24T00:29:47.887Z,18.14
2023-11-24T00:34:50.187Z,18.10
2023-11-24T00:39:52.201Z,18.12
2023-11-24T00:44:54.469Z,18.13
2023-11-24T00:49:56.616Z,18.07
2023-11-24T00:54:58.998Z,18.08
2023-11-24T01:00:01.992Z,18.09
2023-11-24T01:05:04.846Z,18.06
2023-11-24T01:10:09.239Z,18.07
2023-11-24T01:15:11.576Z,18.10
2023-11-24T01:20:13.775Z,18.10
2023-11-24T01:25:16.002Z,18.08
2023-11-24T01:30:18.088Z,18.03
2023-11-24T01:35:20.470Z,18.09
2023-11-24T01:40:22.452Z,18.07
2023-11-24T01:45:25.398Z,18.05
2023-11-24T01:50:28.269Z,18.07
2023-11-24T01:55:30.524Z,18.03
2023-11-24T02:00:34.891Z,18.05
2023-11-24T02:05:38.505Z,18.07
2023-11-24T02:10:40.533Z,18.08
2023-11-24T02:15:42.647Z,18.04
2023-11-24T02:20:44.737Z,18.04
2023-11-24T02:25:46.870Z,18.05
2023-11-24T02:30:49.107Z,18.06
2023-11-24T02:35:51.217Z,18.07
2023-11-24T02:40:53.316Z,18.03
2023-11-24T02:45:55.621Z,18.04
2023-11-24T02:50:57.878Z,18.05
2023-11-24T02:56:00.110Z,18.06
2023-11-24T03:01:02.868Z,18.03
2023-11-24T03:06:08.159Z,18.05
2023-11-24T03:11:10.294Z,18.04
2023-11-24T03:16:12.471Z,17.98
2023-11-24T03:21:14.837Z,18.01
2023-11-24T03:26:16.967Z,18.07
2023-11-24T03:31:19.022Z,18.04
2023-11-24T03:36:21.015Z,18.05
2023-11-24T03:41:23.690Z,18.04
2023-11-24T03:46:26.279Z,18.01
2023-11-24T03:51:28.571Z,18.01
2023-11-24T03:56:30.610Z,18.07
2023-11-24T04:01:32.855Z,18.05
2023-11-24T04:06:35.109Z,18.04
2023-11-24T04:11:37.470Z,18.08
2023-11-24T04:16:39.534Z,18.10
2023-11-24T04:21:42.234Z,18.06
2023-11-24T04:26:45.036Z,18.04
2023-11-24T04:31:47.153Z,18.01
2023-11-24T04:36:49.383Z,18.04
2023-11-24T04:41:51.564Z,18.08
2023-11-24T04:46:53.722Z,18.10
2023-11-24T04:51:55.849Z,18.07
2023-11-24T04:56:58.284Z,18.05
2023-11-24T05:02:00.457Z,18.06
2023-11-24T05:07:02.696Z,18.07
2023-11-24T05:12:05.458Z,18.07
2023-11-24T05:17:08.046Z,18.07
2023-11-24T05:22:10.462Z,18.07
2023-11-24T05:27:12.561Z,18.01
2023-11-24T05:32:14.661Z,18.03
2023-11-24T05:37:16.682Z,18.02
2023-11-24T05:42:18.768Z,18.08
2023-11-24T05:47:21.870Z,18.10
2023-11-24T05:52:23.885Z,18.02
2023-11-24T05:57:26.306Z,18.06
2023-11-24T06:02:28.396Z,18.04
2023-11-24T06:07:30.609Z,18.07
2023-11-24T06:12:32.603Z,18.06
2023-11-24T06:17:35.016Z,18.06
2023-11-24T06:22:37.114Z,18.08
2023-11-24T06:27:39.473Z,18.05
2023-11-24T06:32:41.692Z,18.05
2023-11-24T06:37:44.604Z,18.05
2023-11-24T06:42:47.153Z,18.04
2023-11-24T06:47:49.286Z,18.07
2023-11-24T06:52:51.437Z,18.06
2023-11-24T06:57:53.417Z,18.04
2023-11-24T07:02:55.765Z,18.05
2023-11-24T07:07:57.886Z,18.10
2023-11-24T07:13:00.667Z,18.04
2023-11-24T07:18:02.748Z,18.04
2023-11-24T07:23:04.784Z,18.07
2023-11-24T07:28:08.186Z,18.07
2023-11-24T07:33:12.183Z,18.04
2023-11-24T07:38:15.283Z,18.01
2023-11-24T07:43:17.369Z,18.06
2023-11-24T07:48:19.721Z,18.00
2023-11-24T07:53:22.383Z,18.02
2023-11-24T07:58:24.864Z,17.98
2023-11-24T08:03:28.973Z,18.06
2023-11-24T08:08:30.909Z,18.19
2023-11-24T08:13:32.883Z,18.21
2023-11-24T08:18:37.167Z,18.21
2023-11-24T08:23:39.354Z,18.20
2023-11-24T08:28:44.375Z,18.22
2023-11-24T08:33:47.358Z,18.29
2023-11-24T08:38:49.362Z,18.13
2023-11-24T08:43:51.642Z,18.09
2023-11-24T08:48:54.189Z,18.11
2023-11-24T08:53:56.339Z,18.07
2023-11-24T08:58:58.327Z,18.06
2023-11-24T09:04:00.657Z,18.07
2023-11-24T09:09:02.698Z,18.07
2023-11-24T09:14:06.222Z,18.02
2023-11-24T09:19:08.523Z,18.04
2023-11-24T09:24:12.214Z,18.11
2023-11-24T09:29:14.318Z,18.13
2023-11-24T09:34:16.409Z,18.14
2023-11-24T09:49:51.710Z,18.16
2023-11-24T09:54:59.344Z,18.08
2023-11-24T10:00:02.190Z,18.14
2023-11-24T10:05:05.028Z,18.14
2023-11-24T10:10:08.115Z,18.16
2023-11-24T10:15:10.641Z,18.00
2023-11-24T10:20:13.056Z,18.16
2023-11-24T10:25:16.503Z,18.19
2023-11-24T10:30:19.725Z,18.26
2023-11-24T10:35:21.858Z,18.17
2023-11-24T10:40:25.014Z,18.12
2023-11-24T10:45:32.268Z,18.10
2023-11-24T10:50:40.195Z,18.12
2023-11-24T10:55:43.988Z,18.08
2023-11-24T11:00:46.530Z,18.06
2023-11-24T11:06:12.032Z,18.02
2023-11-24T11:11:27.121Z,18.07
2023-11-24T11:16:29.489Z,18.07
2023-11-24T11:21:31.494Z,18.10
2023-11-24T11:26:50.477Z,18.06
2023-11-24T11:31:53.123Z,18.05
2023-11-24T11:37:03.304Z,18.03
2023-11-24T11:42:06.564Z,18.03
2023-11-24T11:47:15.997Z,17.97
2023-11-24T11:52:19.080Z,18.01
2023-11-24T11:57:22.429Z,18.07
2023-11-24T12:02:25.011Z,18.07
2023-11-24T12:07:27.795Z,18.05
2023-11-24T12:12:29.798Z,18.08
2023-11-24T12:17:32.056Z,18.11
2023-11-24T12:22:34.877Z,18.08
2023-11-24T12:27:37.251Z,18.10
2023-11-24T12:32:40.203Z,18.10
2023-11-24T12:37:44.406Z,18.10
2023-11-24T12:42:47.840Z,18.05
2023-11-24T12:47:49.975Z,18.12
2023-11-24T12:52:52.617Z,18.13
2023-11-24T12:57:55.088Z,18.10
2023-11-24T13:02:57.300Z,18.07
2023-11-24T13:07:59.589Z,18.06
2023-11-24T13:13:03.326Z,18.05
2023-11-24T13:18:06.582Z,18.09
2023-11-24T13:23:09.082Z,18.05
2023-11-24T13:28:12.110Z,18.11
2023-11-24T13:33:15.225Z,18.11
2023-11-24T13:38:18.220Z,18.08
2023-11-24T13:43:20.595Z,18.01
2023-11-24T13:48:25.157Z,18.05
2023-11-24T13:53:29.520Z,18.04
2023-11-24T13:58:31.583Z,18.04
2023-11-24T14:03:33.617Z,18.05
2023-11-24T14:08:39.600Z,18.08
2023-11-24T14:13:41.586Z,18.03
2023-11-24T14:18:43.639Z,18.03
2023-11-24T14:23:45.572Z,17.92
2023-11-24T14:28:47.505Z,17.82
2023-11-24T14:33:50.321Z,17.72
2023-11-24T14:38:54.388Z,17.70
2023-11-24T14:43:56.364Z,17.68
2023-11-24T14:48:58.596Z,17.65
2023-11-24T14:54:00.824Z,17.65
2023-11-24T14:59:02.888Z,17.62
2023-11-24T15:04:05.632Z,17.60
2023-11-24T15:09:08.322Z,17.61
2023-11-24T15:14:16.968Z,17.59
2023-11-24T15:19:19.772Z,17.58
2023-11-24T15:24:22.024Z,17.40
2023-11-24T15:29:24.055Z,17.43
2023-11-24T15:34:27.096Z,17.36
2023-11-24T15:39:47.084Z,17.43
2023-11-24T15:44:50.141Z,17.41
2023-11-24T15:49:54.002Z,17.41
2023-11-24T15:54:57.086Z,17.44
2023-11-24T16:00:02.833Z,17.42
2023-11-24T16:05:07.826Z,17.40
2023-11-24T16:10:17.103Z,17.42
2023-11-24T16:15:19.379Z,17.34
2023-11-24T16:20:21.525Z,17.33
2023-11-24T16:25:23.738Z,17.28
2023-11-24T16:30:25.798Z,17.30
2023-11-24T16:35:27.894Z,17.29
2023-11-24T16:40:30.530Z,17.28
2023-11-24T16:45:32.768Z,17.27
2023-11-24T16:50:35.534Z,17.33
2023-11-24T16:55:37.955Z,17.26
2023-11-24T17:00:39.940Z,17.21
2023-11-24T17:05:42.559Z,17.25
2023-11-24T17:10:46.722Z,17.29
2023-11-24T17:15:50.671Z,17.22
2023-11-24T17:20:53.214Z,17.25
2023-11-24T17:25:55.866Z,17.35
2023-11-24T17:30:57.979Z,17.51
2023-11-24T17:35:59.989Z,17.61
2023-11-24T17:41:03.048Z,17.62
2023-11-24T17:46:07.963Z,17.63
2023-11-24T17:51:10.326Z,17.70
2023-11-24T17:56:12.995Z,17.73
2023-11-24T18:01:15.946Z,17.71
2023-11-24T18:06:18.276Z,17.72
2023-11-24T18:11:20.560Z,17.76
2023-11-24T18:16:22.773Z,17.76
2023-11-24T18:21:26.224Z,17.76
2023-11-24T18:26:28.209Z,17.77
2023-11-24T18:31:32.326Z,17.78
2023-11-24T18:36:34.349Z,17.78
2023-11-24T18:41:37.078Z,17.76
2023-11-24T18:46:39.321Z,17.83
2023-11-24T18:51:41.447Z,17.74
2023-11-24T18:56:43.656Z,17.78
2023-11-24T19:01:46.416Z,17.80
2023-11-24T19:06:48.548Z,17.80
2023-11-24T19:11:50.923Z,17.83
2023-11-24T19:16:53.095Z,17.80
2023-11-24T19:21:55.308Z,17.82
2023-11-24T19:26:58.719Z,17.82
2023-11-24T19:32:00.824Z,17.81
2023-11-24T19:37:03.072Z,17.85
2023-11-24T19:42:05.801Z,17.84
2023-11-24T19:47:10.588Z,17.82
2023-11-24T19:52:12.893Z,17.89
2023-11-24T19:57:15.001Z,17.96
2023-11-24T20:02:17.875Z,17.94
2023-11-24T20:07:21.627Z,17.93
2023-11-24T20:12:25.769Z,17.93
2023-11-24T20:17:27.994Z,17.97
2023-11-24T20:22:30.107Z,17.92
2023-11-24T20:27:32.145Z,17.92
2023-11-24T20:32:34.316Z,17.79
2023-11-24T20:37:36.494Z,17.80
2023-11-24T20:42:40.402Z,17.94
2023-11-24T20:47:43.352Z,18.00
2023-11-24T20:52:46.783Z,17.96
2023-11-24T20:57:49.053Z,17.89
2023-11-24T21:02:51.352Z,17.93
2023-11-24T21:07:53.544Z,17.88
2023-11-24T21:12:55.677Z,17.94
2023-11-24T21:17:58.889Z,17.82
2023-11-24T21:23:01.668Z,17.68
2023-11-24T21:28:04.696Z,17.95
2023-11-24T21:33:06.951Z,17.90
2023-11-24T21:38:09.123Z,17.93
2023-11-24T21:43:11.274Z,17.95
2023-11-24T21:48:13.962Z,17.94
2023-11-24T21:53:16.859Z,17.95
2023-11-24T21:58:19.336Z,17.92
2023-11-24T22:03:22.778Z,17.94
2023-11-24T22:08:25.525Z,17.96
2023-11-24T22:13:27.526Z,18.02
2023-11-24T22:18:29.753Z,17.96
2023-11-24T22:23:31.699Z,18.03
2023-11-24T22:28:33.820Z,17.99
2023-11-24T22:33:36.364Z,18.00
2023-11-24T22:38:38.566Z,17.96
2023-11-24T22:43:40.606Z,17.97
2023-11-24T22:48:45.770Z,17.94
2023-11-24T22:53:47.875Z,17.97
2023-11-24T22:58:52.858Z,17.99
2023-11-24T23:04:01.326Z,17.91
2023-11-24T23:09:05.066Z,17.94
2023-11-24T23:14:07.246Z,17.95
2023-11-24T23:19:09.424Z,17.92
2023-11-24T23:24:12.308Z,17.94
2023-11-24T23:29:14.490Z,17.92
2023-11-24T23:34:16.918Z,17.91
2023-11-24T23:39:20.316Z,17.90
2023-11-24T23:44:22.504Z,17.93
2023-11-24T23:49:24.650Z,17.88
2023-11-24T23:54:26.831Z,17.93
2023-11-24T23:59:28.962Z,17.92
